sensor_id;sensor_type;location;lat;lon;timestamp;temperature;humidity
7530;DHT22;3806;52.270;10.544;2022-11-15T00:00:46;9.10;99.90
7530;DHT22;3806;52.270;10.544;2022-11-15T00:03:16;9.10;99.90
7530;DHT22;3806;52.270;10.544;2022-11-15T00:05:43;9.10;99.90
7530;DHT22;3806;52.270;10.544;2022-11-15T00:08:09;9.10;99.90
7530;DHT22;3806;52.270;10.544;2022-11-15T00:10:35;9.10;99.90
7530;DHT22;3806;52.270;10.544;2022-11-15T00:13:05;9.10;99.90
7530;DHT22;3806;52.270;10.544;2022-11-15T00:15:31;9.10;99.90
7530;DHT22;3806;52.270;10.544;2022-11-15T00:17:56;8.90;99.90
7530;DHT22;3806;52.270;10.544;2022-11-15T00:20:22;8.90;99.90
7530;DHT22;3806;52.270;10.544;2022-11-15T00:22:47;8.90;99.90
7530;DHT22;3806;52.270;10.544;2022-11-15T00:25:13;8.90;99.90
7530;DHT22;3806;52.270;10.544;2022-11-15T00:27:38;8.80;99.90
7530;DHT22;3806;52.270;10.544;2022-11-15T00:30:05;8.80;99.90
7530;DHT22;3806;52.270;10.544;2022-11-15T00:32:33;8.80;99.90
7530;DHT22;3806;52.270;10.544;2022-11-15T00:34:59;8.80;99.90
7530;DHT22;3806;52.270;10.544;2022-11-15T00:37:24;8.80;99.90
7530;DHT22;3806;52.270;10.544;2022-11-15T00:39:50;8.90;99.90
7530;DHT22;3806;52.270;10.544;2022-11-15T00:42:16;8.80;99.90
7530;DHT22;3806;52.270;10.544;2022-11-15T00:44:41;8.80;99.90
7530;DHT22;3806;52.270;10.544;2022-11-15T00:47:07;8.80;99.90
7530;DHT22;3806;52.270;10.544;2022-11-15T00:49:32;8.80;99.90
7530;DHT22;3806;52.270;10.544;2022-11-15T00:51:58;8.80;99.90
7530;DHT22;3806;52.270;10.544;2022-11-15T00:54:23;8.80;99.90
7530;DHT22;3806;52.270;10.544;2022-11-15T00:56:49;8.80;99.90
7530;DHT22;3806;52.270;10.544;2022-11-15T00:59:14;8.70;99.90
7530;DHT22;3806;52.270;10.544;2022-11-15T01:01:40;8.70;99.90
7530;DHT22;3806;52.270;10.544;2022-11-15T01:04:05;8.70;99.90
7530;DHT22;3806;52.270;10.544;2022-11-15T01:06:31;8.70;99.90
7530;DHT22;3806;52.270;10.544;2022-11-15T01:08:57;8.70;99.90
7530;DHT22;3806;52.270;10.544;2022-11-15T01:11:22;8.70;99.90
7530;DHT22;3806;52.270;10.544;2022-11-15T01:13:48;8.70;99.90
7530;DHT22;3806;52.270;10.544;2022-11-15T01:16:16;8.70;99.90
7530;DHT22;3806;52.270;10.544;2022-11-15T01:18:42;8.60;99.90
7530;DHT22;3806;52.270;10.544;2022-11-15T01:21:10;8.60;99.90
7530;DHT22;3806;52.270;10.544;2022-11-15T01:23:36;8.60;99.90
7530;DHT22;3806;52.270;10.544;2022-11-15T01:26:04;8.60;99.90
7530;DHT22;3806;52.270;10.544;2022-11-15T01:28:35;8.60;99.90
7530;DHT22;3806;52.270;10.544;2022-11-15T01:31:02;8.50;99.90
7530;DHT22;3806;52.270;10.544;2022-11-15T01:33:28;8.50;99.90
7530;DHT22;3806;52.270;10.544;2022-11-15T01:35:54;8.50;99.90
7530;DHT22;3806;52.270;10.544;2022-11-15T01:38:21;8.50;99.90
7530;DHT22;3806;52.270;10.544;2022-11-15T01:40:46;8.50;99.90
7530;DHT22;3806;52.270;10.544;2022-11-15T01:43:19;8.50;99.90
7530;DHT22;3806;52.270;10.544;2022-11-15T01:45:48;8.50;99.90
7530;DHT22;3806;52.270;10.544;2022-11-15T01:48:15;8.50;99.90
7530;DHT22;3806;52.270;10.544;2022-11-15T01:50:41;8.50;99.90
7530;DHT22;3806;52.270;10.544;2022-11-15T01:53:06;8.50;99.90
7530;DHT22;3806;52.270;10.544;2022-11-15T01:55:33;8.60;99.90
7530;DHT22;3806;52.270;10.544;2022-11-15T01:58:01;8.50;99.90
7530;DHT22;3806;52.270;10.544;2022-11-15T02:00:29;8.50;99.90
7530;DHT22;3806;52.270;10.544;2022-11-15T02:02:55;8.60;99.90
7530;DHT22;3806;52.270;10.544;2022-11-15T02:05:20;8.50;99.90
7530;DHT22;3806;52.270;10.544;2022-11-15T02:07:47;8.50;99.90
7530;DHT22;3806;52.270;10.544;2022-11-15T02:10:18;8.60;99.90
7530;DHT22;3806;52.270;10.544;2022-11-15T02:12:45;8.50;99.90
7530;DHT22;3806;52.270;10.544;2022-11-15T02:15:12;8.50;99.90
7530;DHT22;3806;52.270;10.544;2022-11-15T02:20:46;8.50;99.90
7530;DHT22;3806;52.270;10.544;2022-11-15T02:29:01;8.40;99.90
7530;DHT22;3806;52.270;10.544;2022-11-15T02:32:12;8.50;99.90
7530;DHT22;3806;52.270;10.544;2022-11-15T02:37:42;8.50;99.90
7530;DHT22;3806;52.270;10.544;2022-11-15T02:42:50;8.60;99.90
7530;DHT22;3806;52.270;10.544;2022-11-15T02:45:40;8.60;99.90
7530;DHT22;3806;52.270;10.544;2022-11-15T02:48:07;8.60;99.90
7530;DHT22;3806;52.270;10.544;2022-11-15T02:50:34;8.60;99.90
7530;DHT22;3806;52.270;10.544;2022-11-15T02:53:00;8.60;99.90
7530;DHT22;3806;52.270;10.544;2022-11-15T02:55:46;8.60;99.90
7530;DHT22;3806;52.270;10.544;2022-11-15T02:58:37;8.60;99.90
7530;DHT22;3806;52.270;10.544;2022-11-15T03:04:08;8.60;99.90
7530;DHT22;3806;52.270;10.544;2022-11-15T03:06:55;8.50;99.90
7530;DHT22;3806;52.270;10.544;2022-11-15T03:12:49;8.60;99.90
7530;DHT22;3806;52.270;10.544;2022-11-15T03:15:21;8.70;99.90
7530;DHT22;3806;52.270;10.544;2022-11-15T03:18:10;8.70;99.90
7530;DHT22;3806;52.270;10.544;2022-11-15T03:20:37;8.80;99.90
7530;DHT22;3806;52.270;10.544;2022-11-15T03:23:09;8.80;99.90
7530;DHT22;3806;52.270;10.544;2022-11-15T03:25:38;8.90;99.90
7530;DHT22;3806;52.270;10.544;2022-11-15T03:28:06;9.00;99.90
7530;DHT22;3806;52.270;10.544;2022-11-15T03:30:36;9.10;99.90
7530;DHT22;3806;52.270;10.544;2022-11-15T03:33:04;9.20;99.90
7530;DHT22;3806;52.270;10.544;2022-11-15T03:35:33;9.20;99.90
7530;DHT22;3806;52.270;10.544;2022-11-15T03:38:25;9.20;99.90
7530;DHT22;3806;52.270;10.544;2022-11-15T03:41:04;9.30;99.90
7530;DHT22;3806;52.270;10.544;2022-11-15T03:44:04;9.30;99.90
7530;DHT22;3806;52.270;10.544;2022-11-15T03:46:36;9.40;99.90
7530;DHT22;3806;52.270;10.544;2022-11-15T03:49:11;9.40;99.90
7530;DHT22;3806;52.270;10.544;2022-11-15T03:51:38;9.40;99.90
7530;DHT22;3806;52.270;10.544;2022-11-15T03:54:05;9.50;99.90
7530;DHT22;3806;52.270;10.544;2022-11-15T03:56:30;9.50;99.90
7530;DHT22;3806;52.270;10.544;2022-11-15T03:58:56;9.50;99.90
7530;DHT22;3806;52.270;10.544;2022-11-15T04:01:22;9.50;99.90
7530;DHT22;3806;52.270;10.544;2022-11-15T04:03:47;9.50;99.90
7530;DHT22;3806;52.270;10.544;2022-11-15T04:06:13;9.50;99.90
7530;DHT22;3806;52.270;10.544;2022-11-15T04:08:39;9.50;99.90
7530;DHT22;3806;52.270;10.544;2022-11-15T04:11:04;9.60;99.90
7530;DHT22;3806;52.270;10.544;2022-11-15T04:13:30;9.60;99.90
7530;DHT22;3806;52.270;10.544;2022-11-15T04:15:55;9.60;99.90
7530;DHT22;3806;52.270;10.544;2022-11-15T04:18:21;9.60;99.90
7530;DHT22;3806;52.270;10.544;2022-11-15T04:20:47;9.60;99.90
7530;DHT22;3806;52.270;10.544;2022-11-15T04:23:31;9.60;99.90
7530;DHT22;3806;52.270;10.544;2022-11-15T04:26:20;9.60;99.90
7530;DHT22;3806;52.270;10.544;2022-11-15T04:28:47;9.60;99.90
7530;DHT22;3806;52.270;10.544;2022-11-15T04:31:31;9.60;99.90
7530;DHT22;3806;52.270;10.544;2022-11-15T04:33:57;9.60;99.90
7530;DHT22;3806;52.270;10.544;2022-11-15T04:36:23;9.60;99.90
7530;DHT22;3806;52.270;10.544;2022-11-15T04:39:07;9.60;99.90
7530;DHT22;3806;52.270;10.544;2022-11-15T04:41:32;9.60;99.90
7530;DHT22;3806;52.270;10.544;2022-11-15T04:43:58;9.60;99.90
7530;DHT22;3806;52.270;10.544;2022-11-15T04:46:24;9.60;99.90
7530;DHT22;3806;52.270;10.544;2022-11-15T04:48:51;9.60;99.90
7530;DHT22;3806;52.270;10.544;2022-11-15T04:51:16;9.60;99.90
7530;DHT22;3806;52.270;10.544;2022-11-15T04:53:42;9.60;99.90
7530;DHT22;3806;52.270;10.544;2022-11-15T04:56:08;9.60;99.90
7530;DHT22;3806;52.270;10.544;2022-11-15T04:58:33;9.60;99.90
7530;DHT22;3806;52.270;10.544;2022-11-15T05:01:10;9.60;99.90
7530;DHT22;3806;52.270;10.544;2022-11-15T05:03:36;9.60;99.90
7530;DHT22;3806;52.270;10.544;2022-11-15T05:06:20;9.60;99.90
7530;DHT22;3806;52.270;10.544;2022-11-15T05:08:46;9.60;99.90
7530;DHT22;3806;52.270;10.544;2022-11-15T05:11:11;9.60;99.90
7530;DHT22;3806;52.270;10.544;2022-11-15T05:13:37;9.60;99.90
7530;DHT22;3806;52.270;10.544;2022-11-15T05:16:03;9.60;99.90
7530;DHT22;3806;52.270;10.544;2022-11-15T05:18:29;9.60;99.90
7530;DHT22;3806;52.270;10.544;2022-11-15T05:20:54;9.60;99.90
7530;DHT22;3806;52.270;10.544;2022-11-15T05:23:20;9.60;99.90
7530;DHT22;3806;52.270;10.544;2022-11-15T05:25:46;9.60;99.90
7530;DHT22;3806;52.270;10.544;2022-11-15T05:28:11;9.60;99.90
7530;DHT22;3806;52.270;10.544;2022-11-15T05:30:37;9.60;99.90
7530;DHT22;3806;52.270;10.544;2022-11-15T05:33:03;9.60;99.90
7530;DHT22;3806;52.270;10.544;2022-11-15T05:35:39;9.60;99.90
7530;DHT22;3806;52.270;10.544;2022-11-15T05:38:05;9.60;99.90
7530;DHT22;3806;52.270;10.544;2022-11-15T05:40:31;9.60;99.90
7530;DHT22;3806;52.270;10.544;2022-11-15T05:42:57;9.60;99.90
7530;DHT22;3806;52.270;10.544;2022-11-15T05:45:25;9.60;99.90
7530;DHT22;3806;52.270;10.544;2022-11-15T05:47:52;9.60;99.90
7530;DHT22;3806;52.270;10.544;2022-11-15T05:50:18;9.60;99.90
7530;DHT22;3806;52.270;10.544;2022-11-15T05:52:46;9.50;99.90
7530;DHT22;3806;52.270;10.544;2022-11-15T05:55:12;9.50;99.90
7530;DHT22;3806;52.270;10.544;2022-11-15T05:57:38;9.50;99.90
7530;DHT22;3806;52.270;10.544;2022-11-15T06:00:04;9.50;99.90
7530;DHT22;3806;52.270;10.544;2022-11-15T06:02:30;9.50;99.90
7530;DHT22;3806;52.270;10.544;2022-11-15T06:04:55;9.50;99.90
7530;DHT22;3806;52.270;10.544;2022-11-15T06:07:21;9.50;99.90
7530;DHT22;3806;52.270;10.544;2022-11-15T06:09:46;9.50;99.90
7530;DHT22;3806;52.270;10.544;2022-11-15T06:12:12;9.40;99.90
7530;DHT22;3806;52.270;10.544;2022-11-15T06:14:38;9.30;99.90
7530;DHT22;3806;52.270;10.544;2022-11-15T06:17:03;9.30;99.90
7530;DHT22;3806;52.270;10.544;2022-11-15T06:19:29;9.30;99.90
7530;DHT22;3806;52.270;10.544;2022-11-15T06:22:01;9.30;99.90
7530;DHT22;3806;52.270;10.544;2022-11-15T06:24:27;9.20;99.90
7530;DHT22;3806;52.270;10.544;2022-11-15T06:26:53;9.20;99.90
7530;DHT22;3806;52.270;10.544;2022-11-15T06:29:18;9.20;99.90
7530;DHT22;3806;52.270;10.544;2022-11-15T06:31:44;9.10;99.90
7530;DHT22;3806;52.270;10.544;2022-11-15T06:34:09;9.10;99.90
7530;DHT22;3806;52.270;10.544;2022-11-15T06:36:36;9.10;99.90
7530;DHT22;3806;52.270;10.544;2022-11-15T06:39:03;9.10;99.90
7530;DHT22;3806;52.270;10.544;2022-11-15T06:41:29;9.20;99.90
7530;DHT22;3806;52.270;10.544;2022-11-15T06:43:54;9.20;99.90
7530;DHT22;3806;52.270;10.544;2022-11-15T06:46:20;9.20;99.90
7530;DHT22;3806;52.270;10.544;2022-11-15T06:48:46;9.20;99.90
7530;DHT22;3806;52.270;10.544;2022-11-15T06:51:11;9.10;99.90
7530;DHT22;3806;52.270;10.544;2022-11-15T06:53:37;9.20;99.90
7530;DHT22;3806;52.270;10.544;2022-11-15T06:56:05;9.20;99.90
7530;DHT22;3806;52.270;10.544;2022-11-15T06:58:31;9.20;99.90
7530;DHT22;3806;52.270;10.544;2022-11-15T07:01:05;9.20;99.90
7530;DHT22;3806;52.270;10.544;2022-11-15T07:03:31;9.20;99.90
7530;DHT22;3806;52.270;10.544;2022-11-15T07:05:57;9.20;99.90
7530;DHT22;3806;52.270;10.544;2022-11-15T07:08:24;9.30;99.90
7530;DHT22;3806;52.270;10.544;2022-11-15T07:10:51;9.40;99.90
7530;DHT22;3806;52.270;10.544;2022-11-15T07:13:17;9.30;99.90
7530;DHT22;3806;52.270;10.544;2022-11-15T07:15:43;9.40;99.90
7530;DHT22;3806;52.270;10.544;2022-11-15T07:18:08;9.40;99.90
7530;DHT22;3806;52.270;10.544;2022-11-15T07:20:34;9.50;99.90
7530;DHT22;3806;52.270;10.544;2022-11-15T07:23:04;9.50;99.90
7530;DHT22;3806;52.270;10.544;2022-11-15T07:25:30;9.50;99.90
7530;DHT22;3806;52.270;10.544;2022-11-15T07:27:57;9.50;99.90
7530;DHT22;3806;52.270;10.544;2022-11-15T07:30:23;9.60;99.90
7530;DHT22;3806;52.270;10.544;2022-11-15T07:32:54;9.70;99.90
7530;DHT22;3806;52.270;10.544;2022-11-15T07:35:19;9.70;99.90
7530;DHT22;3806;52.270;10.544;2022-11-15T07:37:53;9.80;99.90
7530;DHT22;3806;52.270;10.544;2022-11-15T07:40:18;9.90;99.90
7530;DHT22;3806;52.270;10.544;2022-11-15T07:42:44;9.90;99.90
7530;DHT22;3806;52.270;10.544;2022-11-15T07:45:20;10.00;99.90
7530;DHT22;3806;52.270;10.544;2022-11-15T07:47:47;10.00;99.90
7530;DHT22;3806;52.270;10.544;2022-11-15T07:50:12;10.10;99.90
7530;DHT22;3806;52.270;10.544;2022-11-15T07:52:38;10.20;99.90
7530;DHT22;3806;52.270;10.544;2022-11-15T07:55:04;10.30;99.90
7530;DHT22;3806;52.270;10.544;2022-11-15T07:57:30;10.50;99.90
7530;DHT22;3806;52.270;10.544;2022-11-15T07:59:55;10.70;99.90
7530;DHT22;3806;52.270;10.544;2022-11-15T08:02:21;10.90;99.90
7530;DHT22;3806;52.270;10.544;2022-11-15T08:04:47;11.30;99.90
7530;DHT22;3806;52.270;10.544;2022-11-15T08:07:12;12.00;99.90
7530;DHT22;3806;52.270;10.544;2022-11-15T08:09:38;13.00;99.90
7530;DHT22;3806;52.270;10.544;2022-11-15T08:12:04;14.20;99.90
7530;DHT22;3806;52.270;10.544;2022-11-15T08:14:29;15.40;99.30
7530;DHT22;3806;52.270;10.544;2022-11-15T08:16:55;16.80;96.30
7530;DHT22;3806;52.270;10.544;2022-11-15T08:19:21;18.30;93.10
7530;DHT22;3806;52.270;10.544;2022-11-15T08:21:46;19.40;89.10
7530;DHT22;3806;52.270;10.544;2022-11-15T08:24:12;20.00;83.60
7530;DHT22;3806;52.270;10.544;2022-11-15T08:26:38;20.30;78.80
7530;DHT22;3806;52.270;10.544;2022-11-15T08:29:05;20.20;75.30
7530;DHT22;3806;52.270;10.544;2022-11-15T08:31:30;19.90;74.00
7530;DHT22;3806;52.270;10.544;2022-11-15T08:33:56;19.40;74.10
7530;DHT22;3806;52.270;10.544;2022-11-15T08:36:21;19.00;74.50
7530;DHT22;3806;52.270;10.544;2022-11-15T08:38:47;18.60;75.40
7530;DHT22;3806;52.270;10.544;2022-11-15T08:41:26;18.20;76.60
7530;DHT22;3806;52.270;10.544;2022-11-15T08:43:52;17.70;77.80
7530;DHT22;3806;52.270;10.544;2022-11-15T08:46:18;17.30;79.40
7530;DHT22;3806;52.270;10.544;2022-11-15T08:48:44;16.90;81.00
7530;DHT22;3806;52.270;10.544;2022-11-15T08:51:10;16.60;82.60
7530;DHT22;3806;52.270;10.544;2022-11-15T08:53:35;16.30;84.40
7530;DHT22;3806;52.270;10.544;2022-11-15T08:56:01;16.10;86.10
7530;DHT22;3806;52.270;10.544;2022-11-15T08:58:27;15.80;87.70
7530;DHT22;3806;52.270;10.544;2022-11-15T09:00:53;15.50;89.10
7530;DHT22;3806;52.270;10.544;2022-11-15T09:03:19;15.20;90.40
7530;DHT22;3806;52.270;10.544;2022-11-15T09:05:44;15.00;91.20
7530;DHT22;3806;52.270;10.544;2022-11-15T09:08:10;14.90;91.90
7530;DHT22;3806;52.270;10.544;2022-11-15T09:10:36;14.70;92.50
7530;DHT22;3806;52.270;10.544;2022-11-15T09:13:02;14.60;93.10
7530;DHT22;3806;52.270;10.544;2022-11-15T09:15:27;14.50;93.60
7530;DHT22;3806;52.270;10.544;2022-11-15T09:17:53;14.50;94.00
7530;DHT22;3806;52.270;10.544;2022-11-15T09:20:18;14.60;94.40
7530;DHT22;3806;52.270;10.544;2022-11-15T09:22:44;14.50;94.60
7530;DHT22;3806;52.270;10.544;2022-11-15T09:25:10;14.50;94.90
7530;DHT22;3806;52.270;10.544;2022-11-15T09:27:35;14.60;95.10
7530;DHT22;3806;52.270;10.544;2022-11-15T09:30:01;14.70;95.30
7530;DHT22;3806;52.270;10.544;2022-11-15T09:32:29;14.70;95.50
7530;DHT22;3806;52.270;10.544;2022-11-15T09:34:55;14.90;95.20
7530;DHT22;3806;52.270;10.544;2022-11-15T09:37:21;15.10;95.00
7530;DHT22;3806;52.270;10.544;2022-11-15T09:39:47;15.40;94.50
7530;DHT22;3806;52.270;10.544;2022-11-15T09:42:28;15.60;93.90
7530;DHT22;3806;52.270;10.544;2022-11-15T09:47:46;16.10;92.80
7530;DHT22;3806;52.270;10.544;2022-11-15T09:50:17;16.30;92.10
7530;DHT22;3806;52.270;10.544;2022-11-15T09:52:48;16.50;91.80
7530;DHT22;3806;52.270;10.544;2022-11-15T09:55:14;16.50;91.30
7530;DHT22;3806;52.270;10.544;2022-11-15T09:58:24;16.70;91.20
7530;DHT22;3806;52.270;10.544;2022-11-15T10:00:52;16.90;90.80
7530;DHT22;3806;52.270;10.544;2022-11-15T10:03:28;17.00;90.00
7530;DHT22;3806;52.270;10.544;2022-11-15T10:05:59;17.10;89.90
7530;DHT22;3806;52.270;10.544;2022-11-15T10:11:34;17.30;88.80
7530;DHT22;3806;52.270;10.544;2022-11-15T10:14:17;17.50;87.50
7530;DHT22;3806;52.270;10.544;2022-11-15T10:19:47;17.50;87.40
7530;DHT22;3806;52.270;10.544;2022-11-15T10:25:10;17.20;86.40
7530;DHT22;3806;52.270;10.544;2022-11-15T10:27:39;17.20;87.10
7530;DHT22;3806;52.270;10.544;2022-11-15T10:30:15;17.30;87.40
7530;DHT22;3806;52.270;10.544;2022-11-15T10:32:43;17.30;87.40
7530;DHT22;3806;52.270;10.544;2022-11-15T10:35:25;17.40;87.90
7530;DHT22;3806;52.270;10.544;2022-11-15T10:37:51;17.40;86.00
7530;DHT22;3806;52.270;10.544;2022-11-15T10:40:22;17.40;86.40
7530;DHT22;3806;52.270;10.544;2022-11-15T10:42:49;17.40;86.50
7530;DHT22;3806;52.270;10.544;2022-11-15T10:45:31;17.40;87.00
7530;DHT22;3806;52.270;10.544;2022-11-15T10:50:38;17.30;87.40
7530;DHT22;3806;52.270;10.544;2022-11-15T10:55:40;17.00;88.60
7530;DHT22;3806;52.270;10.544;2022-11-15T10:58:22;16.90;89.30
7530;DHT22;3806;52.270;10.544;2022-11-15T11:00:53;16.80;90.00
7530;DHT22;3806;52.270;10.544;2022-11-15T11:03:35;16.70;90.30
7530;DHT22;3806;52.270;10.544;2022-11-15T11:06:15;16.60;90.50
7530;DHT22;3806;52.270;10.544;2022-11-15T11:09:04;16.40;90.80
7530;DHT22;3806;52.270;10.544;2022-11-15T11:11:48;16.30;91.10
7530;DHT22;3806;52.270;10.544;2022-11-15T11:14:21;16.30;91.50
7530;DHT22;3806;52.270;10.544;2022-11-15T11:16:52;16.20;91.70
7530;DHT22;3806;52.270;10.544;2022-11-15T11:25:51;16.00;92.40
7530;DHT22;3806;52.270;10.544;2022-11-15T11:29:08;15.90;92.70
7530;DHT22;3806;52.270;10.544;2022-11-15T11:31:47;15.90;92.90
7530;DHT22;3806;52.270;10.544;2022-11-15T11:42:34;15.90;93.30
7530;DHT22;3806;52.270;10.544;2022-11-15T11:48:14;15.80;93.30
7530;DHT22;3806;52.270;10.544;2022-11-15T11:50:46;15.80;93.50
7530;DHT22;3806;52.270;10.544;2022-11-15T11:53:32;15.90;93.70
7530;DHT22;3806;52.270;10.544;2022-11-15T11:56:21;15.90;93.90
7530;DHT22;3806;52.270;10.544;2022-11-15T11:58:48;15.90;93.90
7530;DHT22;3806;52.270;10.544;2022-11-15T12:01:39;15.90;94.00
7530;DHT22;3806;52.270;10.544;2022-11-15T12:04:19;15.90;94.00
7530;DHT22;3806;52.270;10.544;2022-11-15T12:09:43;15.80;94.10
7530;DHT22;3806;52.270;10.544;2022-11-15T12:12:35;15.80;94.10
7530;DHT22;3806;52.270;10.544;2022-11-15T12:15:10;15.80;94.30
7530;DHT22;3806;52.270;10.544;2022-11-15T12:17:40;15.90;94.50
7530;DHT22;3806;52.270;10.544;2022-11-15T12:20:22;16.00;94.50
7530;DHT22;3806;52.270;10.544;2022-11-15T12:26:11;16.20;94.20
7530;DHT22;3806;52.270;10.544;2022-11-15T12:28:50;16.20;94.10
7530;DHT22;3806;52.270;10.544;2022-11-15T12:31:27;16.20;94.20
7530;DHT22;3806;52.270;10.544;2022-11-15T12:33:57;16.10;94.30
7530;DHT22;3806;52.270;10.544;2022-11-15T12:39:03;16.00;94.40
7530;DHT22;3806;52.270;10.544;2022-11-15T12:41:38;16.00;94.50
7530;DHT22;3806;52.270;10.544;2022-11-15T12:44:04;16.10;94.40
7530;DHT22;3806;52.270;10.544;2022-11-15T12:49:56;16.20;94.10
7530;DHT22;3806;52.270;10.544;2022-11-15T13:02:19;15.80;94.20
7530;DHT22;3806;52.270;10.544;2022-11-15T13:04:47;15.70;94.40
7530;DHT22;3806;52.270;10.544;2022-11-15T13:10:01;15.50;94.60
7530;DHT22;3806;52.270;10.544;2022-11-15T13:14:53;15.40;95.00
7530;DHT22;3806;52.270;10.544;2022-11-15T13:23:01;15.30;95.40
7530;DHT22;3806;52.270;10.544;2022-11-15T13:28:00;15.20;95.70
7530;DHT22;3806;52.270;10.544;2022-11-15T13:30:29;15.20;95.90
7530;DHT22;3806;52.270;10.544;2022-11-15T13:32:54;15.20;96.00
7530;DHT22;3806;52.270;10.544;2022-11-15T13:35:25;15.10;96.10
7530;DHT22;3806;52.270;10.544;2022-11-15T13:37:53;15.10;96.20
7530;DHT22;3806;52.270;10.544;2022-11-15T13:40:28;15.10;96.30
7530;DHT22;3806;52.270;10.544;2022-11-15T13:42:56;15.00;96.40
7530;DHT22;3806;52.270;10.544;2022-11-15T13:45:22;14.90;96.60
7530;DHT22;3806;52.270;10.544;2022-11-15T13:47:54;14.90;96.70
7530;DHT22;3806;52.270;10.544;2022-11-15T13:50:24;14.90;96.90
7530;DHT22;3806;52.270;10.544;2022-11-15T13:52:51;14.90;97.00
7530;DHT22;3806;52.270;10.544;2022-11-15T13:55:22;14.80;97.10
7530;DHT22;3806;52.270;10.544;2022-11-15T13:57:53;14.80;97.20
7530;DHT22;3806;52.270;10.544;2022-11-15T14:00:40;14.80;97.30
7530;DHT22;3806;52.270;10.544;2022-11-15T14:03:19;14.80;97.50
7530;DHT22;3806;52.270;10.544;2022-11-15T14:08:32;14.70;97.80
7530;DHT22;3806;52.270;10.544;2022-11-15T14:11:27;14.70;97.90
7530;DHT22;3806;52.270;10.544;2022-11-15T14:16:38;14.60;98.10
7530;DHT22;3806;52.270;10.544;2022-11-15T14:19:05;14.60;98.20
7530;DHT22;3806;52.270;10.544;2022-11-15T14:21:31;14.50;98.30
7530;DHT22;3806;52.270;10.544;2022-11-15T14:24:17;14.50;98.40
7530;DHT22;3806;52.270;10.544;2022-11-15T14:26:43;14.50;98.60
7530;DHT22;3806;52.270;10.544;2022-11-15T14:29:29;14.50;98.80
7530;DHT22;3806;52.270;10.544;2022-11-15T14:32:13;14.40;98.90
7530;DHT22;3806;52.270;10.544;2022-11-15T14:34:39;14.40;99.20
7530;DHT22;3806;52.270;10.544;2022-11-15T14:37:04;14.40;99.40
7530;DHT22;3806;52.270;10.544;2022-11-15T14:39:30;14.30;99.60
7530;DHT22;3806;52.270;10.544;2022-11-15T14:41:55;14.30;99.70
7530;DHT22;3806;52.270;10.544;2022-11-15T14:44:21;14.40;99.80
7530;DHT22;3806;52.270;10.544;2022-11-15T14:46:47;14.30;99.80
7530;DHT22;3806;52.270;10.544;2022-11-15T14:49:14;14.30;99.90
7530;DHT22;3806;52.270;10.544;2022-11-15T14:51:40;14.30;99.90
7530;DHT22;3806;52.270;10.544;2022-11-15T14:54:09;14.20;99.90
7530;DHT22;3806;52.270;10.544;2022-11-15T14:56:35;14.20;99.90
7530;DHT22;3806;52.270;10.544;2022-11-15T14:59:01;14.10;99.90
7530;DHT22;3806;52.270;10.544;2022-11-15T15:01:27;14.10;99.90
7530;DHT22;3806;52.270;10.544;2022-11-15T15:03:53;14.00;99.90
7530;DHT22;3806;52.270;10.544;2022-11-15T15:06:22;14.10;99.90
7530;DHT22;3806;52.270;10.544;2022-11-15T15:08:48;14.00;99.90
7530;DHT22;3806;52.270;10.544;2022-11-15T15:11:27;14.00;99.90
7530;DHT22;3806;52.270;10.544;2022-11-15T15:13:53;14.00;99.90
7530;DHT22;3806;52.270;10.544;2022-11-15T15:16:22;13.90;99.90
7530;DHT22;3806;52.270;10.544;2022-11-15T15:18:48;13.90;99.90
7530;DHT22;3806;52.270;10.544;2022-11-15T15:21:23;13.80;99.90
7530;DHT22;3806;52.270;10.544;2022-11-15T15:23:49;13.70;99.90
7530;DHT22;3806;52.270;10.544;2022-11-15T15:26:15;13.70;99.90
7530;DHT22;3806;52.270;10.544;2022-11-15T15:28:40;13.70;99.90
7530;DHT22;3806;52.270;10.544;2022-11-15T15:31:07;13.60;99.90
7530;DHT22;3806;52.270;10.544;2022-11-15T15:33:33;13.60;99.90
7530;DHT22;3806;52.270;10.544;2022-11-15T15:35:58;13.60;99.90
7530;DHT22;3806;52.270;10.544;2022-11-15T15:38:24;13.50;99.90
7530;DHT22;3806;52.270;10.544;2022-11-15T15:40:50;13.50;99.90
7530;DHT22;3806;52.270;10.544;2022-11-15T15:43:15;13.50;99.90
7530;DHT22;3806;52.270;10.544;2022-11-15T15:45:41;13.50;99.90
7530;DHT22;3806;52.270;10.544;2022-11-15T15:48:12;13.50;99.90
7530;DHT22;3806;52.270;10.544;2022-11-15T15:50:38;13.50;99.90
7530;DHT22;3806;52.270;10.544;2022-11-15T15:53:04;13.40;99.90
7530;DHT22;3806;52.270;10.544;2022-11-15T15:55:30;13.40;99.90
7530;DHT22;3806;52.270;10.544;2022-11-15T15:57:56;13.40;99.90
7530;DHT22;3806;52.270;10.544;2022-11-15T16:00:23;13.40;99.90
7530;DHT22;3806;52.270;10.544;2022-11-15T16:02:50;13.40;99.90
7530;DHT22;3806;52.270;10.544;2022-11-15T16:05:16;13.40;99.90
7530;DHT22;3806;52.270;10.544;2022-11-15T16:07:43;13.30;99.90
7530;DHT22;3806;52.270;10.544;2022-11-15T16:12:50;13.30;99.90
7530;DHT22;3806;52.270;10.544;2022-11-15T16:15:16;13.30;99.90
7530;DHT22;3806;52.270;10.544;2022-11-15T16:17:54;13.30;99.90
7530;DHT22;3806;52.270;10.544;2022-11-15T16:20:47;13.30;99.90
7530;DHT22;3806;52.270;10.544;2022-11-15T16:23:17;13.30;99.90
7530;DHT22;3806;52.270;10.544;2022-11-15T16:25:48;13.20;99.90
7530;DHT22;3806;52.270;10.544;2022-11-15T16:31:00;13.20;99.90
7530;DHT22;3806;52.270;10.544;2022-11-15T16:33:26;13.20;99.90
7530;DHT22;3806;52.270;10.544;2022-11-15T16:35:51;13.10;99.90
7530;DHT22;3806;52.270;10.544;2022-11-15T16:38:17;13.20;99.90
7530;DHT22;3806;52.270;10.544;2022-11-15T16:40:43;13.20;99.90
7530;DHT22;3806;52.270;10.544;2022-11-15T16:43:09;13.20;99.90
7530;DHT22;3806;52.270;10.544;2022-11-15T16:45:34;13.10;99.90
7530;DHT22;3806;52.270;10.544;2022-11-15T16:48:00;13.10;99.90
7530;DHT22;3806;52.270;10.544;2022-11-15T16:50:29;13.10;99.90
7530;DHT22;3806;52.270;10.544;2022-11-15T16:52:57;13.10;99.90
7530;DHT22;3806;52.270;10.544;2022-11-15T16:55:24;13.10;99.90
7530;DHT22;3806;52.270;10.544;2022-11-15T16:57:51;13.10;99.90
7530;DHT22;3806;52.270;10.544;2022-11-15T17:00:18;13.00;99.90
7530;DHT22;3806;52.270;10.544;2022-11-15T17:02:46;13.10;99.90
7530;DHT22;3806;52.270;10.544;2022-11-15T17:05:12;13.10;99.90
7530;DHT22;3806;52.270;10.544;2022-11-15T17:07:38;13.10;99.90
7530;DHT22;3806;52.270;10.544;2022-11-15T17:10:05;13.20;99.90
7530;DHT22;3806;52.270;10.544;2022-11-15T17:12:35;13.20;99.90
7530;DHT22;3806;52.270;10.544;2022-11-15T17:15:01;13.20;99.90
7530;DHT22;3806;52.270;10.544;2022-11-15T17:17:27;13.20;99.90
7530;DHT22;3806;52.270;10.544;2022-11-15T17:19:53;13.20;99.90
7530;DHT22;3806;52.270;10.544;2022-11-15T17:22:22;13.10;99.90
7530;DHT22;3806;52.270;10.544;2022-11-15T17:24:48;13.20;99.90
7530;DHT22;3806;52.270;10.544;2022-11-15T17:27:14;13.10;99.90
7530;DHT22;3806;52.270;10.544;2022-11-15T17:29:40;13.10;99.90
7530;DHT22;3806;52.270;10.544;2022-11-15T17:32:06;13.10;99.90
7530;DHT22;3806;52.270;10.544;2022-11-15T17:34:32;13.10;99.90
7530;DHT22;3806;52.270;10.544;2022-11-15T17:36:58;13.10;99.90
7530;DHT22;3806;52.270;10.544;2022-11-15T17:39:23;13.10;99.90
7530;DHT22;3806;52.270;10.544;2022-11-15T17:41:49;13.10;99.90
7530;DHT22;3806;52.270;10.544;2022-11-15T17:44:15;13.10;99.90
7530;DHT22;3806;52.270;10.544;2022-11-15T17:46:42;13.10;99.90